Time;durP1;ratioP1;P1;durP2;ratioP2;P2;SDS_P1;SDS_P2;PMS_P1;PMS_P2;Temp;Humidity;BMP_temperature;BMP_pressure;BME280_temperature;BME280_humidity;BME280_pressure;Samples;Min_cycle;Max_cycle;Signal;HPM_P1;HPM_P2
2022/09/12 00:01:56;;;;;;;8.57;7.67;;;;;;;;;;5052058;28;20166;-77
2022/09/12 00:04:21;;;;;;;8.83;7.83;;;;;;;;;;5045107;28;20223;-76
2022/09/12 00:06:46;;;;;;;8.63;7.83;;;;;;;;;;5047491;28;20174;-77
2022/09/12 00:09:12;;;;;;;8.17;7.37;;;;;;;;;;5043140;28;20224;-76
2022/09/12 00:11:38;;;;;;;8.30;7.50;;;;;;;;;;5049120;28;20187;-76
2022/09/12 00:14:04;;;;;;;10.60;7.70;;;;;;;;;;5050716;28;20182;-77
2022/09/12 00:16:32;;;;;;;9.00;8.20;;;;;;;;;;5040111;28;20179;-76
2022/09/12 00:18:57;;;;;;;9.37;8.47;;;;;;;;;;5063579;28;20177;-77
2022/09/12 00:21:22;;;;;;;8.50;7.70;;;;;;;;;;5050275;28;20201;-76
2022/09/12 00:23:48;;;;;;;9.10;8.00;;;;;;;;;;5047290;28;20261;-76
2022/09/12 00:26:14;;;;;;;8.43;7.60;;;;;;;;;;5067198;28;20174;-76
2022/09/12 00:28:40;;;;;;;8.30;7.50;;;;;;;;;;5046512;28;20233;-76
2022/09/12 00:31:12;;;;;;;7.73;6.93;;;;;;;;;;5045605;28;20226;-76
2022/09/12 00:33:38;;;;;;;7.57;6.87;;;;;;;;;;5045783;28;20199;-76
2022/09/12 00:36:08;;;;;;;7.00;6.40;;;;;;;;;;5063993;28;20180;-78
2022/09/12 00:38:37;;;;;;;7.97;7.17;;;;;;;;;;5042227;28;20232;-76
2022/09/12 00:41:02;;;;;;;7.40;6.70;;;;;;;;;;5066197;28;20197;-76
2022/09/12 00:43:38;;;;;;;6.93;6.33;;;;;;;;;;5046321;28;20205;-76
2022/09/12 00:46:24;;;;;;;7.80;6.50;;;;;;;;;;5035418;28;20178;-76
2022/09/12 00:48:53;;;;;;;6.97;6.37;;;;;;;;;;5036580;28;20276;-76
2022/09/12 00:51:19;;;;;;;8.57;6.83;;;;;;;;;;5056564;28;20193;-76
2022/09/12 00:53:46;;;;;;;8.13;6.70;;;;;;;;;;5049090;28;20185;-76
2022/09/12 00:56:14;;;;;;;8.27;7.30;;;;;;;;;;5044090;28;22767;-76
2022/09/12 00:58:42;;;;;;;8.00;7.23;;;;;;;;;;5067728;28;20191;-76
2022/09/12 01:01:07;;;;;;;7.87;7.13;;;;;;;;;;5059369;28;20291;-76
2022/09/12 01:03:32;;;;;;;7.73;7.03;;;;;;;;;;5048054;28;20261;-76
2022/09/12 01:06:27;;;;;;;7.70;6.90;;;;;;;;;;5052463;28;20181;-76
2022/09/12 01:08:53;;;;;;;7.83;7.13;;;;;;;;;;5054690;28;20196;-76
2022/09/12 01:11:21;;;;;;;6.87;6.27;;;;;;;;;;5053602;28;20185;-76
2022/09/12 01:13:47;;;;;;;7.70;7.00;;;;;;;;;;5064905;28;20212;-76
2022/09/12 01:16:13;;;;;;;7.40;6.60;;;;;;;;;;5047979;28;20240;-76
2022/09/12 01:19:00;;;;;;;7.30;6.60;;;;;;;;;;5043534;28;20185;-76
2022/09/12 01:21:29;;;;;;;7.53;6.83;;;;;;;;;;5053757;28;21263;-76
2022/09/12 01:23:57;;;;;;;8.23;7.47;;;;;;;;;;5051999;28;20178;-76
2022/09/12 01:26:38;;;;;;;6.63;6.03;;;;;;;;;;5049773;28;20177;-76
2022/09/12 01:29:22;;;;;;;7.67;6.87;;;;;;;;;;5052535;28;20220;-76
2022/09/12 01:31:51;;;;;;;7.37;6.67;;;;;;;;;;5049987;28;20206;-76
2022/09/12 01:34:27;;;;;;;7.33;6.63;;;;;;;;;;5049852;28;20226;-76
2022/09/12 01:36:52;;;;;;;7.07;6.37;;;;;;;;;;5053661;28;20170;-76
2022/09/12 01:39:26;;;;;;;8.40;7.60;;;;;;;;;;5046819;28;20183;-76
2022/09/12 01:41:53;;;;;;;7.87;6.70;;;;;;;;;;5047779;28;20288;-76
2022/09/12 01:44:30;;;;;;;7.27;6.53;;;;;;;;;;5052253;28;20199;-76
2022/09/12 01:47:04;;;;;;;7.43;6.73;;;;;;;;;;5045650;28;20237;-76
2022/09/12 01:49:39;;;;;;;6.83;6.10;;;;;;;;;;5067583;28;20327;-76
2022/09/12 01:52:19;;;;;;;7.43;6.40;;;;;;;;;;5053061;28;20184;-76
2022/09/12 01:54:54;;;;;;;6.93;6.27;;;;;;;;;;5048523;28;20250;-76
2022/09/12 01:57:24;;;;;;;6.50;5.90;;;;;;;;;;5050631;28;20184;-76
2022/09/12 01:59:51;;;;;;;6.87;5.87;;;;;;;;;;5051710;28;20262;-76
2022/09/12 02:02:20;;;;;;;6.80;6.20;;;;;;;;;;5054722;28;20204;-76
2022/09/12 02:05:04;;;;;;;6.73;6.13;;;;;;;;;;5066005;28;20181;-76
2022/09/12 02:07:36;;;;;;;6.63;6.03;;;;;;;;;;5044400;28;20172;-76
2022/09/12 02:10:06;;;;;;;7.57;5.93;;;;;;;;;;5049924;28;20177;-76
2022/09/12 02:12:35;;;;;;;7.20;5.70;;;;;;;;;;5047499;28;20873;-76
2022/09/12 02:15:03;;;;;;;7.80;7.10;;;;;;;;;;5061761;28;20195;-76
2022/09/12 02:17:29;;;;;;;6.37;5.73;;;;;;;;;;5045715;28;20185;-76
2022/09/12 02:19:57;;;;;;;7.10;6.40;;;;;;;;;;5043476;28;20225;-76
2022/09/12 02:22:24;;;;;;;6.37;5.77;;;;;;;;;;5047491;28;20196;-76
2022/09/12 02:24:51;;;;;;;6.53;5.93;;;;;;;;;;5048117;28;20260;-76
2022/09/12 02:27:24;;;;;;;7.37;6.33;;;;;;;;;;5066553;28;20180;-76
2022/09/12 02:29:49;;;;;;;7.47;6.77;;;;;;;;;;5027431;28;20214;-76
2022/09/12 02:32:44;;;;;;;6.70;6.10;;;;;;;;;;5031223;28;20297;-76
2022/09/12 02:35:17;;;;;;;7.80;7.10;;;;;;;;;;5020148;28;20221;-76
2022/09/12 02:37:52;;;;;;;8.93;6.40;;;;;;;;;;5026307;28;20192;-76
2022/09/12 02:40:17;;;;;;;8.07;6.30;;;;;;;;;;5023412;28;20237;-76
2022/09/12 02:42:43;;;;;;;6.77;6.17;;;;;;;;;;5033731;28;20233;-76
2022/09/12 02:45:09;;;;;;;7.03;6.43;;;;;;;;;;5046674;28;20204;-76
2022/09/12 02:47:42;;;;;;;6.93;6.30;;;;;;;;;;5025963;28;20177;-76
2022/09/12 02:50:08;;;;;;;8.30;6.43;;;;;;;;;;5030680;28;20262;-76
2022/09/12 02:52:34;;;;;;;8.67;6.83;;;;;;;;;;5042831;28;20320;-76
2022/09/12 02:55:00;;;;;;;7.80;7.10;;;;;;;;;;5040529;28;20178;-76
2022/09/12 02:57:26;;;;;;;7.60;6.80;;;;;;;;;;5046973;28;20544;-76
2022/09/12 02:59:53;;;;;;;7.23;6.53;;;;;;;;;;5048000;28;20335;-76
2022/09/12 03:02:21;;;;;;;7.77;6.97;;;;;;;;;;5041753;28;20192;-76
2022/09/12 03:04:50;;;;;;;8.00;6.43;;;;;;;;;;5028357;28;20173;-76
2022/09/12 03:07:21;;;;;;;7.33;6.63;;;;;;;;;;5031504;28;20200;-76
2022/09/12 03:10:05;;;;;;;8.37;7.57;;;;;;;;;;5016614;28;20169;-76
2022/09/12 03:12:48;;;;;;;7.80;7.10;;;;;;;;;;5041803;28;20288;-76
2022/09/12 03:15:21;;;;;;;8.07;7.27;;;;;;;;;;5044802;28;20180;-76
2022/09/12 03:18:18;;;;;;;7.47;6.77;;;;;;;;;;5041165;28;20185;-76
2022/09/12 03:20:44;;;;;;;6.97;6.30;;;;;;;;;;4966912;28;20320;-76
2022/09/12 03:23:27;;;;;;;8.33;7.47;;;;;;;;;;5033259;28;20245;-76
2022/09/12 03:25:56;;;;;;;7.47;6.73;;;;;;;;;;5027878;28;20184;-76
2022/09/12 03:28:21;;;;;;;8.10;6.73;;;;;;;;;;5036637;28;20266;-76
2022/09/12 03:30:47;;;;;;;8.57;7.43;;;;;;;;;;5050820;28;20185;-76
2022/09/12 03:33:13;;;;;;;10.43;8.57;;;;;;;;;;5048771;28;20226;-76
2022/09/12 03:35:39;;;;;;;8.00;7.27;;;;;;;;;;5047048;28;20261;-76
2022/09/12 03:38:06;;;;;;;12.17;7.27;;;;;;;;;;5045931;28;20183;-76
2022/09/12 03:40:32;;;;;;;7.93;7.13;;;;;;;;;;5047656;28;20224;-76
2022/09/12 03:42:57;;;;;;;7.80;7.03;;;;;;;;;;5066292;28;20207;-76
2022/09/12 03:45:22;;;;;;;8.53;7.47;;;;;;;;;;5048572;28;20195;-76
2022/09/12 03:47:47;;;;;;;7.40;6.70;;;;;;;;;;5044624;28;20241;-76
2022/09/12 03:50:12;;;;;;;8.43;7.57;;;;;;;;;;5042464;28;20176;-76
2022/09/12 03:52:38;;;;;;;7.33;6.63;;;;;;;;;;5050498;28;20191;-76
2022/09/12 03:55:03;;;;;;;8.30;7.47;;;;;;;;;;5041423;28;20184;-76
2022/09/12 03:57:28;;;;;;;8.70;7.87;;;;;;;;;;5039095;28;20191;-76
2022/09/12 03:59:54;;;;;;;8.00;7.30;;;;;;;;;;5044773;28;20230;-76
2022/09/12 04:02:25;;;;;;;8.87;7.33;;;;;;;;;;5040699;28;20262;-76
2022/09/12 04:04:50;;;;;;;7.67;6.97;;;;;;;;;;5045563;28;20205;-76
2022/09/12 04:07:16;;;;;;;7.70;7.00;;;;;;;;;;5045629;28;20171;-76
2022/09/12 04:09:41;;;;;;;8.37;7.23;;;;;;;;;;5046374;28;20180;-76
2022/09/12 04:12:06;;;;;;;7.63;6.93;;;;;;;;;;5043510;28;20180;-76
2022/09/12 04:14:32;;;;;;;8.30;7.50;;;;;;;;;;5046828;28;20203;-76
2022/09/12 04:16:57;;;;;;;7.27;6.57;;;;;;;;;;5044016;28;20179;-76
2022/09/12 04:19:22;;;;;;;8.50;7.73;;;;;;;;;;5051581;28;20181;-76
2022/09/12 04:21:47;;;;;;;7.60;6.87;;;;;;;;;;5049706;28;20203;-76
2022/09/12 04:24:13;;;;;;;8.63;7.83;;;;;;;;;;5063629;28;20181;-76
2022/09/12 04:26:38;;;;;;;8.17;7.37;;;;;;;;;;5050859;28;20185;-76
2022/09/12 04:29:03;;;;;;;8.60;7.63;;;;;;;;;;5047105;28;20223;-76
2022/09/12 04:31:28;;;;;;;7.47;6.77;;;;;;;;;;5069335;28;20201;-76
2022/09/12 04:33:54;;;;;;;7.70;6.90;;;;;;;;;;5067245;28;20205;-76
2022/09/12 04:36:19;;;;;;;7.93;7.13;;;;;;;;;;5065970;28;20196;-76
2022/09/12 04:38:45;;;;;;;7.77;7.00;;;;;;;;;;5053957;28;20270;-76
2022/09/12 04:41:12;;;;;;;7.37;6.67;;;;;;;;;;5047164;28;20327;-76
2022/09/12 04:43:37;;;;;;;8.40;7.53;;;;;;;;;;5051592;28;20182;-76
2022/09/12 04:46:06;;;;;;;7.70;6.90;;;;;;;;;;5054627;28;20177;-76
2022/09/12 04:48:31;;;;;;;8.63;6.90;;;;;;;;;;5067079;28;20168;-76
2022/09/12 04:51:04;;;;;;;7.77;6.87;;;;;;;;;;5056099;28;20187;-76
2022/09/12 04:53:30;;;;;;;7.77;7.07;;;;;;;;;;5065460;28;20197;-76
2022/09/12 04:55:55;;;;;;;7.90;7.10;;;;;;;;;;5046507;28;20272;-76
2022/09/12 04:58:20;;;;;;;7.07;6.47;;;;;;;;;;5050033;28;20249;-76
2022/09/12 05:00:45;;;;;;;7.57;6.87;;;;;;;;;;5063434;28;20206;-76
2022/09/12 05:03:10;;;;;;;8.30;7.50;;;;;;;;;;5056276;28;20187;-76
2022/09/12 05:05:35;;;;;;;8.73;7.83;;;;;;;;;;5053492;28;20172;-76
2022/09/12 05:08:01;;;;;;;8.47;7.43;;;;;;;;;;5073627;28;20202;-76
2022/09/12 05:10:27;;;;;;;8.07;7.27;;;;;;;;;;5049783;28;20255;-76
2022/09/12 05:12:52;;;;;;;10.30;7.77;;;;;;;;;;5071820;28;20271;-76
2022/09/12 05:15:17;;;;;;;8.47;7.40;;;;;;;;;;5065261;28;20263;-76
2022/09/12 05:17:43;;;;;;;8.00;6.67;;;;;;;;;;5047288;28;20213;-76
2022/09/12 05:20:11;;;;;;;6.83;6.13;;;;;;;;;;5069206;28;20211;-76
2022/09/12 05:22:36;;;;;;;16.13;14.73;;;;;;;;;;5050043;28;20195;-75
2022/09/12 05:25:02;;;;;;;7.77;6.93;;;;;;;;;;5064121;28;20182;-76
2022/09/12 05:27:27;;;;;;;8.00;7.30;;;;;;;;;;5055911;28;20190;-76
2022/09/12 05:29:52;;;;;;;7.77;6.70;;;;;;;;;;5064480;28;20224;-76
2022/09/12 05:32:17;;;;;;;9.20;7.17;;;;;;;;;;5048195;28;20183;-76
2022/09/12 05:34:42;;;;;;;7.13;6.53;;;;;;;;;;5067066;28;20283;-76
2022/09/12 05:37:08;;;;;;;8.23;7.43;;;;;;;;;;5067722;28;20266;-76
2022/09/12 05:39:33;;;;;;;9.63;6.97;;;;;;;;;;5053685;28;20214;-76
2022/09/12 05:41:58;;;;;;;8.07;6.70;;;;;;;;;;5068265;28;20183;-76
2022/09/12 05:44:23;;;;;;;10.27;7.30;;;;;;;;;;5048758;28;20174;-76
2022/09/12 05:46:50;;;;;;;12.63;8.23;;;;;;;;;;5049634;28;20271;-76
2022/09/12 05:49:15;;;;;;;7.17;6.20;;;;;;;;;;5041440;28;20225;-76
2022/09/12 05:51:43;;;;;;;7.60;6.90;;;;;;;;;;5043307;28;20201;-76
2022/09/12 05:54:10;;;;;;;7.77;6.40;;;;;;;;;;5052491;28;20207;-76
2022/09/12 05:56:38;;;;;;;6.97;6.23;;;;;;;;;;5052024;28;20187;-76
2022/09/12 05:59:04;;;;;;;6.70;6.10;;;;;;;;;;5052206;28;20186;-76
2022/09/12 06:01:30;;;;;;;6.87;6.27;;;;;;;;;;5047525;28;20196;-76
2022/09/12 06:03:57;;;;;;;6.10;5.50;;;;;;;;;;5052412;28;20186;-76
2022/09/12 06:06:23;;;;;;;7.87;7.10;;;;;;;;;;5049356;28;20326;-76
2022/09/12 06:08:53;;;;;;;7.03;6.43;;;;;;;;;;5050497;28;20528;-76
2022/09/12 06:11:24;;;;;;;7.33;6.63;;;;;;;;;;5052989;28;20175;-76
2022/09/12 06:13:50;;;;;;;7.33;6.63;;;;;;;;;;5051740;28;20182;-76
2022/09/12 06:16:16;;;;;;;6.93;6.33;;;;;;;;;;5049845;28;20179;-76
2022/09/12 06:18:46;;;;;;;7.50;6.80;;;;;;;;;;5057803;28;20182;-76
2022/09/12 06:21:11;;;;;;;7.00;6.33;;;;;;;;;;5048521;28;20209;-76
2022/09/12 06:23:37;;;;;;;6.77;6.17;;;;;;;;;;5064848;28;20228;-76
2022/09/12 06:26:03;;;;;;;7.30;6.57;;;;;;;;;;5051255;28;20243;-76
2022/09/12 06:28:29;;;;;;;7.57;6.87;;;;;;;;;;5054880;28;20316;-76
2022/09/12 06:31:00;;;;;;;7.00;6.40;;;;;;;;;;5048979;28;20191;-76
2022/09/12 06:33:25;;;;;;;6.80;6.17;;;;;;;;;;5029294;28;20200;-76
2022/09/12 06:35:50;;;;;;;7.30;6.60;;;;;;;;;;5039514;28;20178;-76
2022/09/12 06:38:16;;;;;;;6.23;5.70;;;;;;;;;;5030505;28;20315;-76
2022/09/12 06:40:46;;;;;;;7.00;6.30;;;;;;;;;;5025587;28;21788;-76
2022/09/12 06:43:12;;;;;;;7.70;6.03;;;;;;;;;;5047345;28;20184;-76
2022/09/12 06:45:37;;;;;;;5.97;5.47;;;;;;;;;;5038089;28;20174;-76
2022/09/12 06:48:04;;;;;;;6.43;5.93;;;;;;;;;;5032811;28;20203;-76
2022/09/12 06:50:29;;;;;;;6.70;5.87;;;;;;;;;;5027551;28;20184;-76
2022/09/12 06:52:55;;;;;;;6.53;5.50;;;;;;;;;;5040734;28;20228;-76
2022/09/12 06:55:22;;;;;;;6.87;6.27;;;;;;;;;;5027442;28;20192;-76
2022/09/12 06:57:47;;;;;;;6.00;5.50;;;;;;;;;;5028194;28;20485;-76
2022/09/12 07:00:12;;;;;;;6.20;5.60;;;;;;;;;;5036624;28;20561;-76
2022/09/12 07:02:37;;;;;;;6.10;5.60;;;;;;;;;;5027721;28;20178;-76
2022/09/12 07:05:03;;;;;;;6.03;5.53;;;;;;;;;;5044541;28;20187;-76
2022/09/12 07:07:33;;;;;;;5.50;5.00;;;;;;;;;;5044559;28;20178;-76
2022/09/12 07:09:58;;;;;;;5.60;5.20;;;;;;;;;;5027321;28;20185;-76
2022/09/12 07:12:23;;;;;;;6.10;5.57;;;;;;;;;;5026488;28;20193;-76
2022/09/12 07:14:48;;;;;;;6.00;5.50;;;;;;;;;;5026078;28;20178;-76
2022/09/12 07:17:14;;;;;;;6.00;5.50;;;;;;;;;;5022178;28;20197;-76
2022/09/12 07:19:39;;;;;;;5.60;5.00;;;;;;;;;;5040773;28;20419;-76
2022/09/12 07:22:04;;;;;;;5.47;4.97;;;;;;;;;;5026782;28;20188;-76
2022/09/12 07:24:29;;;;;;;5.73;5.23;;;;;;;;;;5042103;28;20176;-76
2022/09/12 07:26:55;;;;;;;5.47;4.93;;;;;;;;;;5032955;28;20169;-76
2022/09/12 07:29:20;;;;;;;5.60;5.10;;;;;;;;;;5039391;28;20230;-76
2022/09/12 07:31:45;;;;;;;5.70;5.27;;;;;;;;;;5024864;28;20187;-76
2022/09/12 07:34:10;;;;;;;5.50;5.00;;;;;;;;;;5046562;28;20238;-77
2022/09/12 07:36:36;;;;;;;6.30;5.07;;;;;;;;;;5022870;28;20220;-76
2022/09/12 07:39:01;;;;;;;5.53;5.10;;;;;;;;;;5042809;28;20209;-76
2022/09/12 07:41:28;;;;;;;5.30;4.80;;;;;;;;;;5025808;28;20199;-76
2022/09/12 07:43:55;;;;;;;4.77;4.37;;;;;;;;;;5043942;28;20166;-77
2022/09/12 07:46:21;;;;;;;4.70;4.40;;;;;;;;;;5042163;28;20209;-74
2022/09/12 07:48:50;;;;;;;6.30;4.93;;;;;;;;;;5036912;28;20185;-77
2022/09/12 07:51:16;;;;;;;4.80;4.40;;;;;;;;;;5023491;28;20170;-77
2022/09/12 07:53:42;;;;;;;4.90;4.40;;;;;;;;;;5042243;28;20178;-77
2022/09/12 07:56:09;;;;;;;5.80;4.87;;;;;;;;;;5027574;28;20182;-77
2022/09/12 07:58:35;;;;;;;4.30;3.90;;;;;;;;;;5022009;28;20262;-77
2022/09/12 08:01:04;;;;;;;5.57;4.00;;;;;;;;;;5028751;28;20208;-77
2022/09/12 08:03:29;;;;;;;4.07;3.73;;;;;;;;;;5047797;28;20197;-77
2022/09/12 08:06:01;;;;;;;4.63;4.23;;;;;;;;;;5049999;28;20215;-77
2022/09/12 08:08:28;;;;;;;6.20;4.03;;;;;;;;;;5029342;28;20182;-77
2022/09/12 08:10:55;;;;;;;3.90;3.60;;;;;;;;;;5046218;28;20185;-77
2022/09/12 08:13:21;;;;;;;3.83;3.53;;;;;;;;;;5021334;28;20195;-77
2022/09/12 08:15:46;;;;;;;4.10;3.70;;;;;;;;;;5043303;28;20183;-77
2022/09/12 08:18:11;;;;;;;3.80;3.50;;;;;;;;;;5030995;28;20175;-77
2022/09/12 08:20:36;;;;;;;3.77;3.43;;;;;;;;;;5018583;28;20247;-77
2022/09/12 08:23:02;;;;;;;4.23;3.87;;;;;;;;;;5032271;28;20190;-77
2022/09/12 08:25:27;;;;;;;3.83;3.53;;;;;;;;;;5024457;28;20247;-77
2022/09/12 08:27:53;;;;;;;3.70;3.40;;;;;;;;;;5051057;28;20223;-78
2022/09/12 08:30:18;;;;;;;3.73;3.43;;;;;;;;;;5043845;28;20189;-78
2022/09/12 08:32:43;;;;;;;7.87;3.77;;;;;;;;;;5046948;28;20180;-77
2022/09/12 08:35:08;;;;;;;3.83;3.53;;;;;;;;;;5069816;28;20509;-78
2022/09/12 08:37:34;;;;;;;3.83;3.53;;;;;;;;;;5041683;28;20214;-78
2022/09/12 08:39:59;;;;;;;6.20;5.73;;;;;;;;;;5046978;28;20204;-78
2022/09/12 08:42:37;;;;;;;3.80;3.50;;;;;;;;;;5068476;28;20174;-78
2022/09/12 08:45:09;;;;;;;3.57;3.27;;;;;;;;;;5046604;28;20176;-78
2022/09/12 08:47:40;;;;;;;3.50;3.20;;;;;;;;;;5049110;28;20171;-78
2022/09/12 08:50:09;;;;;;;3.33;3.03;;;;;;;;;;5048223;28;20179;-78
2022/09/12 08:52:37;;;;;;;4.00;3.57;;;;;;;;;;5044264;28;20190;-78
2022/09/12 08:55:05;;;;;;;3.50;3.30;;;;;;;;;;5041793;28;20219;-78
2022/09/12 08:57:33;;;;;;;3.47;3.17;;;;;;;;;;5050860;28;20183;-78
2022/09/12 09:00:01;;;;;;;3.67;3.37;;;;;;;;;;5041814;28;20221;-78
2022/09/12 09:02:45;;;;;;;6.37;5.17;;;;;;;;;;5042678;28;20185;-78
2022/09/12 09:05:21;;;;;;;3.53;3.23;;;;;;;;;;5049362;28;20171;-79
2022/09/12 09:07:49;;;;;;;20.20;18.83;;;;;;;;;;5038377;28;20176;-79
2022/09/12 09:10:30;;;;;;;3.33;3.03;;;;;;;;;;5068996;28;20453;-79
2022/09/12 09:13:11;;;;;;;3.37;3.07;;;;;;;;;;5044618;28;20186;-79
2022/09/12 09:15:57;;;;;;;3.23;3.03;;;;;;;;;;5061729;28;20236;-79
2022/09/12 09:18:27;;;;;;;3.40;3.10;;;;;;;;;;5049315;28;20210;-79
2022/09/12 09:20:56;;;;;;;5.07;3.77;;;;;;;;;;5051949;28;20287;-79
2022/09/12 09:23:27;;;;;;;3.43;3.13;;;;;;;;;;5052248;28;20241;-79
2022/09/12 09:25:58;;;;;;;3.67;3.37;;;;;;;;;;5049132;28;20225;-79
2022/09/12 09:28:32;;;;;;;3.50;3.30;;;;;;;;;;5044692;28;20313;-79
2022/09/12 09:30:57;;;;;;;3.10;2.90;;;;;;;;;;5030850;28;20210;-79
2022/09/12 09:33:25;;;;;;;3.13;2.93;;;;;;;;;;5031518;28;20208;-80
2022/09/12 09:36:08;;;;;;;3.17;2.73;;;;;;;;;;5049028;28;20192;-80
2022/09/12 09:38:46;;;;;;;2.93;2.60;;;;;;;;;;5047423;28;20305;-80
2022/09/12 09:41:41;;;;;;;7.67;3.57;;;;;;;;;;5029330;28;20212;-80
2022/09/12 09:44:07;;;;;;;8.20;3.00;;;;;;;;;;5011226;28;20190;-80
2022/09/12 09:46:32;;;;;;;3.10;2.80;;;;;;;;;;5025464;28;20189;-80
2022/09/12 09:48:58;;;;;;;3.30;3.00;;;;;;;;;;5031209;28;20182;-79
2022/09/12 09:51:33;;;;;;;2.77;2.57;;;;;;;;;;5032072;28;20386;-80
2022/09/12 09:54:08;;;;;;;4.50;3.23;;;;;;;;;;5029584;28;20220;-80
2022/09/12 09:56:35;;;;;;;2.97;2.77;;;;;;;;;;5034660;28;20250;-79
2022/09/12 09:59:19;;;;;;;2.93;2.73;;;;;;;;;;5051440;28;20223;-80
2022/09/12 10:01:50;;;;;;;2.97;2.73;;;;;;;;;;5028573;28;20209;-80
2022/09/12 10:04:19;;;;;;;3.43;3.10;;;;;;;;;;5041736;28;20185;-80
2022/09/12 10:06:45;;;;;;;2.90;2.70;;;;;;;;;;5046789;28;20186;-80
2022/09/12 10:09:13;;;;;;;2.70;2.50;;;;;;;;;;5027998;28;20229;-80
2022/09/12 10:11:39;;;;;;;2.70;2.50;;;;;;;;;;5052969;28;20185;-80
2022/09/12 10:14:04;;;;;;;2.37;2.17;;;;;;;;;;5030651;28;20214;-80
2022/09/12 10:16:33;;;;;;;2.03;1.93;;;;;;;;;;5029838;28;20336;-80
2022/09/12 10:19:02;;;;;;;2.30;2.20;;;;;;;;;;5044264;28;20200;-80
2022/09/12 10:21:33;;;;;;;2.20;2.10;;;;;;;;;;5023569;28;20528;-80
2022/09/12 10:24:13;;;;;;;2.43;2.23;;;;;;;;;;5027569;28;20178;-80
2022/09/12 10:26:39;;;;;;;3.03;2.70;;;;;;;;;;5045800;28;20207;-80
2022/09/12 10:29:16;;;;;;;2.23;2.13;;;;;;;;;;5040845;28;20224;-80
2022/09/12 10:31:44;;;;;;;2.40;2.13;;;;;;;;;;5053349;28;20263;-81
2022/09/12 10:34:19;;;;;;;2.47;2.37;;;;;;;;;;5047701;28;20227;-80
2022/09/12 10:36:44;;;;;;;2.63;2.43;;;;;;;;;;5046427;28;20173;-80
2022/09/12 10:39:15;;;;;;;2.17;2.07;;;;;;;;;;5053483;28;20331;-80
2022/09/12 10:41:40;;;;;;;3.40;2.27;;;;;;;;;;5047807;28;20204;-81
2022/09/12 10:44:12;;;;;;;1.87;1.77;;;;;;;;;;5049254;28;20195;-81
2022/09/12 10:46:39;;;;;;;3.00;1.70;;;;;;;;;;5051056;28;20264;-81
2022/09/12 10:49:23;;;;;;;2.03;1.93;;;;;;;;;;5041814;28;20274;-81
2022/09/12 10:51:49;;;;;;;2.40;2.20;;;;;;;;;;5057688;28;20359;-81
2022/09/12 10:54:15;;;;;;;2.30;1.70;;;;;;;;;;5040015;28;20235;-81
2022/09/12 10:57:00;;;;;;;2.10;1.70;;;;;;;;;;5045574;28;20196;-81
2022/09/12 10:59:32;;;;;;;2.00;1.90;;;;;;;;;;5069734;28;20195;-81
2022/09/12 11:02:13;;;;;;;3.20;2.07;;;;;;;;;;5065024;28;20206;-81
2022/09/12 11:04:38;;;;;;;3.10;2.00;;;;;;;;;;5046331;28;20180;-81
2022/09/12 11:07:22;;;;;;;2.43;2.00;;;;;;;;;;5063995;28;20174;-81
2022/09/12 11:10:06;;;;;;;1.90;1.80;;;;;;;;;;5040403;28;20178;-81
2022/09/12 11:12:50;;;;;;;1.90;1.80;;;;;;;;;;5035758;28;20190;-81
2022/09/12 11:15:16;;;;;;;1.60;1.50;;;;;;;;;;5050046;28;20178;-81
2022/09/12 11:17:55;;;;;;;2.53;1.90;;;;;;;;;;5058709;28;20183;-82
2022/09/12 11:20:44;;;;;;;2.67;1.90;;;;;;;;;;5047694;28;20213;-82
2022/09/12 11:23:23;;;;;;;2.07;1.87;;;;;;;;;;5049020;28;20437;-81
2022/09/12 11:25:51;;;;;;;1.87;1.77;;;;;;;;;;5048844;28;20176;-81
2022/09/12 11:28:23;;;;;;;1.53;1.43;;;;;;;;;;5047514;28;20244;-81
2022/09/12 11:31:08;;;;;;;1.60;1.50;;;;;;;;;;5043381;28;20199;-81
2022/09/12 11:33:33;;;;;;;1.97;1.87;;;;;;;;;;5041026;28;20184;-81
2022/09/12 11:36:01;;;;;;;1.87;1.73;;;;;;;;;;5048600;28;20247;-81
2022/09/12 11:38:26;;;;;;;2.47;1.47;;;;;;;;;;5038922;28;20196;-81
2022/09/12 11:40:57;;;;;;;1.80;1.70;;;;;;;;;;5064202;28;20201;-81
2022/09/12 11:43:42;;;;;;;1.70;1.60;;;;;;;;;;5041634;28;20208;-81
2022/09/12 11:46:27;;;;;;;1.53;1.43;;;;;;;;;;5063916;28;20177;-82
2022/09/12 11:48:58;;;;;;;1.30;1.20;;;;;;;;;;5057123;28;20184;-81
2022/09/12 11:51:25;;;;;;;6.10;1.80;;;;;;;;;;5048477;28;20194;-81
2022/09/12 11:54:00;;;;;;;1.60;1.50;;;;;;;;;;5050787;28;20188;-81
2022/09/12 11:56:26;;;;;;;1.50;1.40;;;;;;;;;;5042555;28;20220;-81
2022/09/12 11:58:56;;;;;;;2.53;1.17;;;;;;;;;;5047163;28;20172;-81
2022/09/12 12:01:25;;;;;;;1.03;1.03;;;;;;;;;;5040728;28;20221;-80
2022/09/12 12:03:52;;;;;;;1.50;1.40;;;;;;;;;;5065225;28;20171;-81
2022/09/12 12:06:24;;;;;;;2.07;1.50;;;;;;;;;;5060891;28;20191;-81
2022/09/12 12:08:50;;;;;;;1.40;1.30;;;;;;;;;;5055674;28;20190;-81
2022/09/12 12:11:25;;;;;;;2.03;1.40;;;;;;;;;;5070433;28;20188;-80
2022/09/12 12:13:53;;;;;;;1.10;1.10;;;;;;;;;;5050560;28;20181;-81
2022/09/12 12:16:18;;;;;;;1.50;1.40;;;;;;;;;;5049554;28;20180;-80
2022/09/12 12:18:44;;;;;;;2.63;1.70;;;;;;;;;;5042373;28;20184;-81
2022/09/12 12:21:31;;;;;;;2.90;1.40;;;;;;;;;;5041758;28;20219;-80
2022/09/12 12:24:10;;;;;;;1.50;1.40;;;;;;;;;;5041591;28;20180;-81
2022/09/12 12:26:38;;;;;;;1.70;1.60;;;;;;;;;;5043725;28;20238;-80
2022/09/12 12:29:24;;;;;;;1.43;1.37;;;;;;;;;;5047910;28;20247;-80
2022/09/12 12:31:58;;;;;;;1.63;1.52;;;;;;;;;;5031334;28;20474;-80
2022/09/12 12:34:31;;;;;;;1.90;1.50;;;;;;;;;;5048401;28;20287;-80
2022/09/12 12:36:57;;;;;;;1.60;1.40;;;;;;;;;;5046264;28;20211;-80
2022/09/12 12:39:54;;;;;;;1.70;1.60;;;;;;;;;;5067798;28;20251;-80
2022/09/12 12:42:34;;;;;;;1.58;1.48;;;;;;;;;;5048111;28;20268;-80
2022/09/12 12:45:08;;;;;;;1.60;1.50;;;;;;;;;;5053988;28;20181;-80
2022/09/12 12:47:37;;;;;;;2.42;1.60;;;;;;;;;;5043785;28;20231;-80
2022/09/12 12:50:18;;;;;;;1.60;1.50;;;;;;;;;;5043060;28;20204;-80
2022/09/12 12:52:49;;;;;;;2.33;1.40;;;;;;;;;;5063711;28;20231;-80
2022/09/12 12:55:19;;;;;;;2.35;1.50;;;;;;;;;;5053416;28;20193;-80
2022/09/12 12:57:51;;;;;;;1.60;1.50;;;;;;;;;;5065586;28;20260;-80
2022/09/12 13:00:22;;;;;;;1.60;1.50;;;;;;;;;;5049198;28;20201;-80
2022/09/12 13:02:54;;;;;;;1.60;1.50;;;;;;;;;;5069758;28;20260;-80
2022/09/12 13:05:22;;;;;;;2.05;1.60;;;;;;;;;;5053069;28;20177;-80
2022/09/12 13:07:53;;;;;;;1.60;1.50;;;;;;;;;;5052931;28;20188;-80
2022/09/12 13:10:29;;;;;;;1.60;1.50;;;;;;;;;;5048123;28;20184;-80
2022/09/12 13:12:56;;;;;;;1.60;1.50;;;;;;;;;;5065843;28;20312;-80
2022/09/12 13:15:33;;;;;;;1.77;1.65;;;;;;;;;;5046854;28;20186;-79
2022/09/12 13:18:09;;;;;;;1.60;1.50;;;;;;;;;;5053774;28;20177;-79
2022/09/12 13:20:37;;;;;;;3.75;3.33;;;;;;;;;;5063246;28;20212;-79
2022/09/12 13:23:02;;;;;;;1.85;1.70;;;;;;;;;;5050981;28;20165;-79
2022/09/12 13:25:35;;;;;;;2.47;1.60;;;;;;;;;;5051426;28;20254;-79
2022/09/12 13:28:00;;;;;;;2.28;1.65;;;;;;;;;;5040755;28;20217;-79
2022/09/12 13:30:27;;;;;;;1.40;1.30;;;;;;;;;;5046479;28;20178;-79
2022/09/12 13:32:52;;;;;;;1.63;1.52;;;;;;;;;;5043454;28;20269;-79
2022/09/12 13:35:27;;;;;;;1.30;1.20;;;;;;;;;;5049028;28;20288;-79
2022/09/12 13:37:57;;;;;;;1.70;1.60;;;;;;;;;;5046198;28;20247;-79
2022/09/12 13:40:26;;;;;;;1.50;1.40;;;;;;;;;;5043001;28;20208;-79
2022/09/12 13:43:03;;;;;;;1.48;1.38;;;;;;;;;;5054942;28;20191;-79
2022/09/12 13:45:34;;;;;;;1.67;1.58;;;;;;;;;;5048742;28;20176;-79
2022/09/12 13:48:00;;;;;;;1.65;1.55;;;;;;;;;;5053994;28;20204;-79
2022/09/12 13:50:28;;;;;;;1.70;1.60;;;;;;;;;;5044478;28;20190;-79
2022/09/12 13:52:54;;;;;;;1.63;1.42;;;;;;;;;;5042529;28;20182;-79
2022/09/12 13:55:30;;;;;;;1.58;1.48;;;;;;;;;;5048950;28;20185;-79
2022/09/12 13:57:58;;;;;;;2.08;1.30;;;;;;;;;;5045508;28;20173;-79
2022/09/12 14:00:24;;;;;;;1.27;1.17;;;;;;;;;;5040496;28;20201;-79
2022/09/12 14:02:49;;;;;;;1.45;1.35;;;;;;;;;;5056045;28;20165;-79
2022/09/12 14:05:35;;;;;;;1.80;1.70;;;;;;;;;;5065611;28;20178;-78
2022/09/12 14:08:02;;;;;;;2.28;1.50;;;;;;;;;;5065927;28;20177;-79
2022/09/12 14:10:32;;;;;;;1.48;1.38;;;;;;;;;;5047041;28;20178;-79
2022/09/12 14:12:59;;;;;;;1.25;1.25;;;;;;;;;;5061068;28;20185;-79
2022/09/12 14:15:29;;;;;;;1.30;1.20;;;;;;;;;;5047115;28;20286;-79
2022/09/12 14:17:59;;;;;;;1.80;1.70;;;;;;;;;;5053321;28;20177;-78
2022/09/12 14:20:25;;;;;;;1.77;1.65;;;;;;;;;;5043008;28;20208;-78
2022/09/12 14:22:50;;;;;;;2.60;1.35;;;;;;;;;;5065455;28;20174;-78
2022/09/12 14:25:18;;;;;;;2.45;1.70;;;;;;;;;;5046407;28;20170;-78
2022/09/12 14:27:48;;;;;;;1.65;1.20;;;;;;;;;;5047674;28;20170;-78
2022/09/12 14:30:25;;;;;;;1.60;1.50;;;;;;;;;;5047267;28;20174;-78
2022/09/12 14:33:09;;;;;;;1.50;1.40;;;;;;;;;;5053665;28;20493;-79
2022/09/12 14:35:34;;;;;;;1.48;1.38;;;;;;;;;;5063282;28;20236;-78
2022/09/12 14:38:15;;;;;;;2.08;1.42;;;;;;;;;;5050076;28;20205;-78
2022/09/12 14:40:44;;;;;;;1.52;1.42;;;;;;;;;;5059582;28;20224;-78
2022/09/12 14:43:19;;;;;;;1.77;1.67;;;;;;;;;;5051493;28;20200;-78
2022/09/12 14:45:50;;;;;;;1.88;1.77;;;;;;;;;;5047089;28;20238;-78
2022/09/12 14:48:17;;;;;;;2.05;1.52;;;;;;;;;;5050493;28;23322;-78
2022/09/12 14:50:47;;;;;;;1.40;1.30;;;;;;;;;;5052629;28;20197;-78
2022/09/12 14:53:15;;;;;;;1.40;1.30;;;;;;;;;;5045110;28;20177;-78
2022/09/12 14:55:45;;;;;;;2.17;1.40;;;;;;;;;;5049683;28;20193;-78
2022/09/12 14:58:14;;;;;;;1.40;1.30;;;;;;;;;;5046563;28;20182;-78